Time;durP1;ratioP1;P1;durP2;ratioP2;P2;SDS_P1;SDS_P2;PMS_P1;PMS_P2;Temp;Humidity;BMP_temperature;BMP_pressure;BME280_temperature;BME280_humidity;BME280_pressure;Samples;Min_cycle;Max_cycle;Signal;HPM_P1;HPM_P2
2023/06/06 00:00:20;;;;;;;4.35;3.00;;;;;;;-143.21;54.16;72004.75;5093097;28;20591;-84
2023/06/06 00:02:48;;;;;;;4.80;3.60;;;;;;;-143.21;53.92;72012.69;5091743;28;20199;-84
2023/06/06 00:05:16;;;;;;;5.63;3.00;;;;;;;-143.21;54.26;72006.75;5091806;28;20197;-84
2023/06/06 00:07:44;;;;;;;5.80;3.35;;;;;;;-143.21;54.30;72014.69;5091574;28;20193;-83
2023/06/06 00:10:14;;;;;;;5.60;3.30;;;;;;;-143.21;54.04;72018.63;5092248;28;20197;-82
2023/06/06 00:12:43;;;;;;;4.32;3.05;;;;;;;-143.21;54.37;72026.56;5092529;28;20200;-83
2023/06/06 00:15:13;;;;;;;4.30;2.67;;;;;;;-143.21;54.11;72038.47;5091727;28;20715;-81
2023/06/06 00:17:41;;;;;;;4.38;2.72;;;;;;;-143.21;53.66;72044.41;5092063;28;20201;-81
2023/06/06 00:20:08;;;;;;;8.05;3.05;;;;;;;-143.21;53.35;72040.44;5091951;28;20203;-81
2023/06/06 00:22:36;;;;;;;5.33;2.50;;;;;;;-143.21;53.12;72050.38;5089317;28;20586;-82
2023/06/06 00:25:04;;;;;;;5.95;2.83;;;;;;;-143.21;53.08;72046.41;5092381;28;20197;-83
2023/06/06 00:27:31;;;;;;;8.23;2.97;;;;;;;-143.21;52.79;72062.25;5092217;28;20197;-83
2023/06/06 00:29:58;;;;;;;3.77;2.83;;;;;;;-143.21;52.11;72056.31;5089041;28;20201;-82
2023/06/06 00:32:26;;;;;;;4.10;2.80;;;;;;;-143.21;51.73;72064.25;5091790;28;20200;-82
2023/06/06 00:34:55;;;;;;;3.63;2.60;;;;;;;-143.21;51.73;72072.19;5092373;28;20196;-82
2023/06/06 00:37:22;;;;;;;6.32;2.53;;;;;;;-143.21;51.25;72080.13;5091274;28;20207;-82
2023/06/06 00:39:49;;;;;;;5.67;3.07;;;;;;;-143.21;51.15;72082.09;5091230;28;20228;-84
2023/06/06 00:42:15;;;;;;;3.53;2.47;;;;;;;-143.21;50.91;72090.03;5091339;28;20204;-83
2023/06/06 00:44:42;;;;;;;6.07;2.33;;;;;;;-143.21;51.03;72086.06;5091304;28;20224;-82
2023/06/06 00:47:16;;;;;;;4.17;2.80;;;;;;;-143.21;50.56;72090.03;5090886;28;20201;-84
2023/06/06 00:49:53;;;;;;;3.35;2.30;;;;;;;-143.21;50.27;72095.97;5091248;28;20197;-83
2023/06/06 00:52:21;;;;;;;4.13;2.57;;;;;;;-143.21;50.21;72092.00;5091171;28;20273;-83
2023/06/06 00:54:48;;;;;;;5.57;2.50;;;;;;;-143.21;49.94;72101.94;5091040;28;20227;-83
2023/06/06 00:57:18;;;;;;;5.83;2.57;;;;;;;-143.21;49.68;72103.91;5092234;28;20235;-82
2023/06/06 00:59:48;;;;;;;3.83;2.57;;;;;;;-143.21;49.05;72119.78;5092454;28;20232;-82
2023/06/06 01:05:30;;;;;;;4.20;2.20;;;;;;;-143.21;48.52;72115.81;5060795;28;20216;-84
2023/06/06 01:08:27;;;;;;;5.00;2.40;;;;;;;-143.21;48.71;72115.81;5090729;28;20258;-86
2023/06/06 01:11:06;;;;;;;3.20;2.00;;;;;;;-143.21;48.59;72121.75;5089274;28;20693;-82
2023/06/06 01:13:39;;;;;;;2.93;2.30;;;;;;;-143.21;49.06;72131.69;5090162;28;20200;-82
2023/06/06 01:16:14;;;;;;;2.73;2.30;;;;;;;-143.21;49.21;72133.66;5091324;28;20212;-84
2023/06/06 01:18:42;;;;;;;5.07;2.23;;;;;;;-143.21;48.86;72133.66;5091051;28;20612;-81
2023/06/06 01:21:11;;;;;;;8.67;2.40;;;;;;;-143.21;48.45;72137.63;5090777;28;20201;-82
2023/06/06 01:23:40;;;;;;;6.30;2.20;;;;;;;-143.21;48.31;72147.53;5090660;28;20224;-81
2023/06/06 01:26:07;;;;;;;4.10;2.63;;;;;;;-143.21;48.61;72145.56;5090951;28;20375;-81
2023/06/06 01:28:33;;;;;;;7.37;2.27;;;;;;;-143.21;49.00;72153.47;5090708;28;20638;-80
2023/06/06 01:31:01;;;;;;;6.27;2.10;;;;;;;-143.21;49.14;72153.47;5093998;28;20239;-81
2023/06/06 01:33:33;;;;;;;2.17;1.93;;;;;;;-143.21;49.42;72161.41;5090732;28;20667;-82
2023/06/06 01:36:10;;;;;;;2.70;2.10;;;;;;;-143.21;49.61;72161.41;5087637;28;20201;-81
2023/06/06 01:38:44;;;;;;;3.97;2.10;;;;;;;-143.21;49.57;72173.31;5090623;28;20204;-82
2023/06/06 01:41:16;;;;;;;3.80;2.53;;;;;;;-143.21;49.79;72159.44;5090341;28;20292;-82
2023/06/06 01:43:45;;;;;;;4.97;2.30;;;;;;;-143.21;49.83;72161.41;5089810;28;20277;-82
2023/06/06 01:46:13;;;;;;;4.83;2.37;;;;;;;-143.21;49.73;72171.34;5089760;28;20655;-82
2023/06/06 01:48:41;;;;;;;6.57;2.57;;;;;;;-143.21;49.97;72167.38;5090540;28;20228;-82
2023/06/06 01:51:09;;;;;;;2.90;2.10;;;;;;;-143.21;50.21;72163.41;5090101;28;20203;-83
2023/06/06 01:53:35;;;;;;;4.93;2.40;;;;;;;-143.21;50.08;72161.41;5089786;28;20208;-82
2023/06/06 01:56:04;;;;;;;5.47;2.40;;;;;;;-143.21;49.50;72163.41;5090391;28;20192;-82
2023/06/06 01:58:31;;;;;;;5.40;2.10;;;;;;;-143.21;49.89;72167.38;5090096;28;20196;-82
2023/06/06 02:00:57;;;;;;;4.57;2.13;;;;;;;-143.21;50.08;72179.25;5090115;28;20310;-82
2023/06/06 02:03:24;;;;;;;2.77;2.23;;;;;;;-143.21;50.74;72185.22;5089965;28;20266;-82
2023/06/06 02:05:51;;;;;;;3.60;2.40;;;;;;;-143.21;50.65;72177.28;5090158;28;20281;-82
2023/06/06 02:08:19;;;;;;;6.43;2.13;;;;;;;-143.21;50.88;72179.25;5089926;28;20196;-83
2023/06/06 02:10:45;;;;;;;3.10;2.10;;;;;;;-143.21;50.76;72185.22;5089737;28;20207;-83
2023/06/06 02:13:14;;;;;;;4.87;2.27;;;;;;;-143.21;50.99;72185.22;5091270;28;20196;-83
2023/06/06 02:15:40;;;;;;;3.73;2.60;;;;;;;-143.21;51.52;72191.16;5094336;28;20265;-82
2023/06/06 02:18:07;;;;;;;8.73;3.03;;;;;;;-143.21;51.38;72189.19;5090380;28;20196;-81
2023/06/06 02:20:34;;;;;;;9.47;3.23;;;;;;;-143.21;51.46;72199.09;5093025;28;20215;-81
2023/06/06 02:23:02;;;;;;;5.80;2.70;;;;;;;-143.21;51.58;72197.13;5089518;28;20208;-82
2023/06/06 02:25:28;;;;;;;5.23;2.63;;;;;;;-143.21;51.92;72199.09;5086034;28;20231;-81
2023/06/06 02:27:57;;;;;;;3.83;2.30;;;;;;;-143.21;51.72;72216.94;5092267;28;20197;-81
2023/06/06 02:30:25;;;;;;;7.57;2.90;;;;;;;-143.21;52.26;72220.91;5088913;28;20655;-81
2023/06/06 02:32:52;;;;;;;4.93;2.20;;;;;;;-143.21;52.34;72230.81;5093875;28;20622;-80
2023/06/06 02:35:19;;;;;;;4.30;2.37;;;;;;;-143.21;52.78;72240.75;5089609;28;20201;-81
2023/06/06 02:37:46;;;;;;;5.43;2.00;;;;;;;-143.21;52.75;72236.78;5089614;28;20200;-81
2023/06/06 02:40:15;;;;;;;4.37;2.00;;;;;;;-143.21;53.03;72248.66;5089674;28;20207;-83
2023/06/06 02:42:41;;;;;;;2.73;2.20;;;;;;;-143.21;53.43;72262.56;5093079;28;20205;-81
2023/06/06 02:45:10;;;;;;;3.43;2.27;;;;;;;-143.21;53.59;72252.63;5093743;28;20224;-81
2023/06/06 02:47:39;;;;;;;6.67;2.10;;;;;;;-143.21;53.70;72254.63;5089464;28;20655;-83
2023/06/06 02:50:06;;;;;;;5.87;2.37;;;;;;;-143.21;54.21;72268.50;5089517;28;20223;-82
2023/06/06 02:52:35;;;;;;;4.43;2.20;;;;;;;-143.21;54.09;72274.47;5090079;28;20693;-82
2023/06/06 02:55:03;;;;;;;2.53;2.00;;;;;;;-143.21;54.68;72284.38;5090117;28;20220;-82
2023/06/06 02:57:30;;;;;;;7.00;2.40;;;;;;;-143.21;54.75;72280.41;5089789;28;20197;-81
2023/06/06 02:59:58;;;;;;;4.47;2.30;;;;;;;-143.21;54.96;72282.38;5089993;28;20292;-83
2023/06/06 03:02:25;;;;;;;5.23;2.47;;;;;;;-143.21;54.97;72304.19;5089837;28;20711;-84
2023/06/06 03:04:55;;;;;;;5.93;2.30;;;;;;;-143.21;55.35;72296.28;5089445;28;20236;-83
2023/06/06 03:07:22;;;;;;;4.10;2.17;;;;;;;-143.21;55.51;72316.09;5084407;28;20674;-83
2023/06/06 03:09:49;;;;;;;4.43;2.47;;;;;;;-143.21;55.61;72316.09;5073459;28;20228;-78
2023/06/06 03:12:16;;;;;;;5.33;2.40;;;;;;;-143.21;56.06;72322.06;5090104;28;20280;-79
2023/06/06 03:14:42;;;;;;;8.47;2.60;;;;;;;-143.21;56.32;72326.00;5095012;28;20266;-78
2023/06/06 03:17:09;;;;;;;4.73;2.43;;;;;;;-143.21;56.19;72322.06;5086834;28;20197;-79
2023/06/06 03:19:36;;;;;;;6.10;2.23;;;;;;;-143.21;56.76;72329.97;5088470;28;20215;-79
2023/06/06 03:22:05;;;;;;;5.03;2.30;;;;;;;-143.21;56.67;72320.06;5094305;28;20683;-79
2023/06/06 03:24:33;;;;;;;6.17;2.50;;;;;;;-143.21;56.78;72318.09;5098603;28;20315;-79
2023/06/06 03:27:02;;;;;;;4.57;2.53;;;;;;;-143.21;56.90;72310.16;5083192;28;20213;-78
2023/06/06 03:29:29;;;;;;;5.73;2.50;;;;;;;-143.21;57.00;72312.13;5091034;28;20657;-79
2023/06/06 03:31:56;;;;;;;4.30;2.03;;;;;;;-143.21;56.89;72308.16;5103030;28;20232;-79
2023/06/06 03:34:25;;;;;;;9.40;2.67;;;;;;;-143.21;57.20;72300.25;5092544;28;20212;-79
2023/06/06 03:36:54;;;;;;;7.30;2.50;;;;;;;-143.21;56.84;72296.28;5109955;28;20208;-79
2023/06/06 03:39:22;;;;;;;7.63;2.80;;;;;;;-143.21;56.82;72302.22;5091928;28;20749;-79
2023/06/06 03:41:49;;;;;;;5.53;2.70;;;;;;;-143.21;56.95;72294.28;5108040;28;20212;-79
2023/06/06 03:44:15;;;;;;;4.67;2.40;;;;;;;-143.21;57.33;72296.28;5100520;28;20220;-79
2023/06/06 03:46:42;;;;;;;5.23;2.30;;;;;;;-143.21;57.70;72294.28;5100558;28;20645;-80
2023/06/06 03:49:09;;;;;;;7.00;2.80;;;;;;;-143.21;57.55;72286.34;5098651;28;20720;-80
2023/06/06 03:51:37;;;;;;;4.30;2.70;;;;;;;-143.21;57.02;72290.31;5095277;28;20519;-83
2023/06/06 03:54:04;;;;;;;3.93;2.40;;;;;;;-143.21;57.13;72286.34;5092473;28;20200;-83
2023/06/06 03:56:33;;;;;;;5.07;2.60;;;;;;;-143.21;57.34;72276.44;5093132;28;20295;-84
2023/06/06 03:58:59;;;;;;;7.57;2.90;;;;;;;-143.21;57.16;72274.47;5089572;28;20200;-83
2023/06/06 04:01:31;;;;;;;2.73;2.30;;;;;;;-143.21;57.03;72272.47;5092469;28;20197;-84
2023/06/06 04:03:57;;;;;;;6.07;2.70;;;;;;;-143.21;56.70;72264.53;5088897;28;20219;-82
2023/06/06 04:06:25;;;;;;;19.00;4.10;;;;;;;-143.21;56.67;72258.59;5091928;28;20201;-82
2023/06/06 04:08:52;;;;;;;11.63;2.63;;;;;;;-143.21;56.67;72252.63;5091496;28;20299;-80
2023/06/06 04:11:19;;;;;;;7.20;2.60;;;;;;;-143.21;57.04;72248.66;5091246;28;20204;-80
2023/06/06 04:13:47;;;;;;;5.57;2.60;;;;;;;-143.21;57.00;72240.75;5094927;28;20655;-81
2023/06/06 04:16:13;;;;;;;5.50;3.00;;;;;;;-143.21;56.63;72244.72;5096050;28;20727;-80
2023/06/06 04:18:40;;;;;;;5.50;2.57;;;;;;;-143.21;56.69;72244.72;5092912;28;20197;-80
2023/06/06 04:21:07;;;;;;;5.07;3.10;;;;;;;-143.21;57.00;72244.72;5091370;28;20196;-80
2023/06/06 04:23:34;;;;;;;9.77;2.87;;;;;;;-143.21;56.79;72238.75;5090567;28;20197;-81
2023/06/06 04:26:02;;;;;;;5.47;2.63;;;;;;;-143.21;57.06;72228.84;5091241;28;20244;-81
2023/06/06 04:28:31;;;;;;;4.70;2.40;;;;;;;-143.21;56.89;72216.94;5087961;28;20205;-82
2023/06/06 04:30:59;;;;;;;4.67;2.70;;;;;;;-143.21;56.40;72211.00;5093893;28;20289;-81
2023/06/06 04:33:28;;;;;;;16.53;8.60;;;;;;;-143.21;56.06;72212.97;5091335;28;20227;-81
2023/06/06 04:35:57;;;;;;;6.97;3.37;;;;;;;-143.21;56.19;72207.03;5091892;28;20220;-80
2023/06/06 04:38:24;;;;;;;4.53;2.50;;;;;;;-143.21;56.20;72197.13;5090563;28;20193;-81
2023/06/06 04:40:53;;;;;;;5.23;2.60;;;;;;;-143.21;56.20;72197.13;5094830;28;20625;-82
2023/06/06 04:43:23;;;;;;;11.40;2.87;;;;;;;-143.21;55.98;72195.13;5090772;28;20266;-82
2023/06/06 04:45:50;;;;;;;4.97;2.53;;;;;;;-143.21;55.69;72195.13;5090811;28;20240;-83
2023/06/06 04:48:19;;;;;;;7.13;2.87;;;;;;;-143.21;55.85;72187.19;5092257;28;20200;-79
2023/06/06 04:50:47;;;;;;;7.23;3.07;;;;;;;-143.21;56.14;72191.16;5094603;28;20220;-80
2023/06/06 04:53:13;;;;;;;10.53;2.90;;;;;;;-143.21;56.37;72183.22;5090958;28;20694;-80
2023/06/06 04:55:41;;;;;;;8.67;2.90;;;;;;;-143.21;56.14;72181.25;5089648;28;20204;-79
2023/06/06 04:58:08;;;;;;;5.53;2.90;;;;;;;-143.21;55.94;72177.28;5096032;28;20627;-80
2023/06/06 05:00:35;;;;;;;9.77;2.97;;;;;;;-143.21;56.36;72173.31;5092678;28;20219;-79
2023/06/06 05:03:03;;;;;;;12.87;3.73;;;;;;;-143.21;56.45;72171.34;5091041;28;20207;-79
2023/06/06 05:05:34;;;;;;;13.57;3.60;;;;;;;-143.21;56.67;72161.41;5093228;28;20220;-79
2023/06/06 05:08:01;;;;;;;12.17;3.33;;;;;;;-143.21;57.40;72155.47;5089174;28;20230;-79
2023/06/06 05:10:28;;;;;;;4.70;2.87;;;;;;;-143.21;56.25;72151.50;5088666;28;20212;-79
2023/06/06 05:12:55;;;;;;;6.10;3.97;;;;;;;-143.21;56.66;72149.53;5089424;28;20232;-79
2023/06/06 05:15:21;;;;;;;9.17;3.80;;;;;;;-143.21;56.66;72151.50;5088930;28;20212;-80
2023/06/06 05:17:58;;;;;;;12.52;3.20;;;;;;;-143.21;56.45;72141.59;5093000;28;20238;-80
2023/06/06 05:20:24;;;;;;;7.63;3.60;;;;;;;-143.21;56.53;72145.56;5089665;28;20298;-82
2023/06/06 05:22:53;;;;;;;5.90;3.40;;;;;;;-143.21;56.58;72145.56;5089590;28;20235;-80
2023/06/06 05:25:19;;;;;;;8.98;2.90;;;;;;;-143.21;56.55;72151.50;5092586;28;20315;-80
2023/06/06 05:27:46;;;;;;;7.70;2.97;;;;;;;-143.21;56.58;72153.47;5092596;28;20204;-82
2023/06/06 05:30:14;;;;;;;9.73;3.00;;;;;;;-143.21;56.78;72149.53;5090647;28;20201;-81
2023/06/06 05:32:41;;;;;;;12.25;3.28;;;;;;;-143.21;57.37;72139.59;5091120;28;20188;-85
2023/06/06 05:35:09;;;;;;;10.00;3.05;;;;;;;-143.21;57.31;72141.59;5091516;28;20288;-84
2023/06/06 05:37:36;;;;;;;8.95;2.80;;;;;;;-143.21;56.59;72153.47;5091133;28;20228;-86
2023/06/06 05:40:05;;;;;;;7.77;2.80;;;;;;;-143.21;56.82;72145.56;5091835;28;20207;-86
2023/06/06 05:42:32;;;;;;;4.00;2.58;;;;;;;-143.21;56.87;72153.47;5089066;28;20247;-89
2023/06/06 05:44:59;;;;;;;9.70;3.50;;;;;;;-143.21;57.17;72141.59;5093218;28;20220;-90
2023/06/06 05:47:26;;;;;;;10.18;3.20;;;;;;;-143.21;57.21;72127.72;5092890;28;20215;-87
2023/06/06 05:49:53;;;;;;;7.40;2.97;;;;;;;-143.21;56.91;72129.69;5095075;28;20566;-90
2023/06/06 05:52:20;;;;;;;8.63;3.17;;;;;;;-143.21;56.84;72129.69;5092802;28;20208;-88
2023/06/06 05:54:47;;;;;;;7.17;3.10;;;;;;;-143.21;56.63;72121.75;5093230;28;20243;-88
2023/06/06 05:57:23;;;;;;;4.15;2.63;;;;;;;-143.21;54.56;72107.88;5092237;28;20207;-86
2023/06/06 05:59:50;;;;;;;7.95;2.70;;;;;;;-143.21;54.80;72107.88;5091197;28;20607;-85
2023/06/06 06:02:17;;;;;;;4.45;2.70;;;;;;;-143.21;55.02;72115.81;5091250;28;20197;-85
2023/06/06 06:04:45;;;;;;;6.13;2.95;;;;;;;-143.21;55.81;72119.78;5091248;28;20224;-86
2023/06/06 06:07:13;;;;;;;7.75;3.38;;;;;;;-143.21;56.61;72107.88;5090631;28;20212;-87
2023/06/06 06:09:40;;;;;;;14.95;3.05;;;;;;;-143.21;56.16;72094.00;5090786;28;20196;-86
2023/06/06 06:12:07;;;;;;;7.38;2.60;;;;;;;-143.21;55.97;72094.00;5092488;28;20204;-88
2023/06/06 06:14:36;;;;;;;5.32;2.78;;;;;;;-143.21;55.61;72086.06;5089400;28;20209;-85
2023/06/06 06:17:03;;;;;;;5.85;2.78;;;;;;;-143.21;55.77;72082.09;5091456;28;20197;-85
2023/06/06 06:19:30;;;;;;;7.18;2.53;;;;;;;-143.21;55.87;72074.16;5088010;28;20204;-84
2023/06/06 06:21:57;;;;;;;7.20;2.60;;;;;;;-143.21;55.37;72072.19;5090763;28;20196;-84
2023/06/06 06:24:23;;;;;;;7.05;2.70;;;;;;;-143.21;55.32;72058.31;5090355;28;20200;-85
2023/06/06 06:26:51;;;;;;;9.80;2.70;;;;;;;-143.21;54.66;72050.38;5093791;28;20706;-82
2023/06/06 06:29:18;;;;;;;9.77;3.10;;;;;;;-143.21;54.87;72048.38;5091152;28;20218;-83
2023/06/06 06:31:46;;;;;;;10.05;2.90;;;;;;;-143.21;55.19;72044.41;5089300;28;20600;-84
2023/06/06 06:34:13;;;;;;;6.68;2.55;;;;;;;-143.21;55.46;72030.53;5089489;28;20193;-83
2023/06/06 06:36:40;;;;;;;10.57;2.80;;;;;;;-143.21;55.18;72016.66;5088779;28;20204;-82
2023/06/06 06:39:06;;;;;;;9.15;2.67;;;;;;;-143.21;55.15;72006.75;5090081;28;20588;-83
2023/06/06 06:41:33;;;;;;;8.68;2.58;;;;;;;-143.21;54.43;71996.81;5089391;28;20205;-83
2023/06/06 06:44:00;;;;;;;7.93;2.70;;;;;;;-143.21;54.43;71984.94;5089523;28;20565;-83
2023/06/06 06:46:27;;;;;;;9.48;2.83;;;;;;;-143.21;55.56;71971.06;5089857;28;20282;-81
2023/06/06 06:48:55;;;;;;;7.28;2.40;;;;;;;-143.21;53.67;71955.19;5090439;28;20193;-82
2023/06/06 06:51:22;;;;;;;10.18;2.92;;;;;;;-143.21;53.80;71943.28;5089937;28;20220;-82
2023/06/06 06:53:51;;;;;;;5.28;3.10;;;;;;;-143.21;54.06;71939.31;5090396;28;20274;-83
2023/06/06 06:56:18;;;;;;;6.88;2.92;;;;;;;-143.21;54.92;71939.31;5090181;28;20211;-83
2023/06/06 06:58:46;;;;;;;8.55;3.00;;;;;;;-143.21;54.87;71935.34;5089190;28;20208;-82
2023/06/06 07:01:14;;;;;;;4.25;2.60;;;;;;;-143.21;54.39;71923.47;5089914;28;20284;-82
2023/06/06 07:03:44;;;;;;;5.35;2.75;;;;;;;-143.21;52.68;71917.50;5091790;28;20581;-82
2023/06/06 07:06:12;;;;;;;8.00;2.72;;;;;;;-143.21;52.65;71907.59;5094408;28;20221;-81
2023/06/06 07:08:40;;;;;;;7.32;3.25;;;;;;;-143.21;53.49;71909.56;5094971;28;20249;-82
2023/06/06 07:11:07;;;;;;;7.80;3.20;;;;;;;-143.21;53.75;71889.75;5093940;28;20208;-80
2023/06/06 07:13:34;;;;;;;4.32;2.60;;;;;;;-143.21;51.91;71881.81;5093193;28;20205;-79
2023/06/06 07:16:01;;;;;;;7.35;2.90;;;;;;;-143.21;51.50;71883.81;5096103;28;20204;-81
2023/06/06 07:18:27;;;;;;;6.22;2.25;;;;;;;-143.21;51.28;71867.94;5099587;28;20245;-81
2023/06/06 07:20:54;;;;;;;5.00;2.70;;;;;;;-143.21;52.13;71860.00;5095368;28;20689;-81
2023/06/06 07:23:22;;;;;;;5.82;2.80;;;;;;;-143.21;53.81;71850.09;5094299;28;20764;-81
2023/06/06 07:25:53;;;;;;;11.05;2.80;;;;;;;-143.21;51.11;71840.19;5097845;28;20229;-81
2023/06/06 07:28:20;;;;;;;6.93;2.80;;;;;;;-143.21;51.35;71832.25;5092537;28;20635;-81
2023/06/06 07:30:47;;;;;;;8.38;2.92;;;;;;;-143.21;52.46;71820.34;5094965;28;20264;-82
2023/06/06 07:33:14;;;;;;;6.68;2.80;;;;;;;-143.21;52.08;71804.47;5093047;28;20197;-82
2023/06/06 07:35:41;;;;;;;5.85;2.63;;;;;;;-143.21;52.45;71792.59;5091646;28;20235;-82
2023/06/06 07:38:07;;;;;;;6.35;2.90;;;;;;;-143.21;51.87;71784.66;5092036;28;20208;-82
2023/06/06 07:40:35;;;;;;;8.35;3.13;;;;;;;-143.21;51.83;71774.75;5090424;28;20587;-82
2023/06/06 07:43:02;;;;;;;4.88;2.95;;;;;;;-143.21;52.44;71774.75;5092664;28;20197;-81
2023/06/06 07:45:31;;;;;;;10.32;2.88;;;;;;;-143.21;51.31;71756.91;5091602;28;20223;-81
2023/06/06 07:47:58;;;;;;;9.15;3.00;;;;;;;-143.21;49.91;71762.84;5089329;28;20646;-81
2023/06/06 07:50:25;;;;;;;7.63;3.15;;;;;;;-143.21;50.03;71770.78;5094565;28;20200;-83
2023/06/06 07:52:52;;;;;;;7.28;2.92;;;;;;;-143.21;50.76;71760.88;5098468;28;20573;-81
2023/06/06 07:55:20;;;;;;;6.80;3.00;;;;;;;-143.21;50.35;71756.91;5099844;28;20243;-81
2023/06/06 07:57:50;;;;;;;8.55;2.92;;;;;;;-143.21;50.95;71754.91;5093631;28;20232;-81
2023/06/06 08:00:17;;;;;;;4.60;2.67;;;;;;;-143.21;51.54;71746.97;5094296;28;20211;-80
2023/06/06 08:02:44;;;;;;;14.88;3.28;;;;;;;-143.21;51.62;71739.06;5094389;28;20218;-81
2023/06/06 08:05:13;;;;;;;5.40;3.08;;;;;;;-143.21;50.22;71741.03;5093571;28;20201;-81
2023/06/06 08:07:40;;;;;;;11.30;3.15;;;;;;;-143.21;50.33;71741.03;5093386;28;20538;-86
2023/06/06 08:10:11;;;;;;;6.70;3.10;;;;;;;-143.21;51.04;71733.09;5094153;28;20283;-82
2023/06/06 08:12:45;;;;;;;10.88;3.05;;;;;;;-143.21;50.54;71727.16;5089828;28;20308;-81
2023/06/06 08:15:14;;;;;;;9.48;3.30;;;;;;;-143.21;50.73;71725.16;5103064;28;20203;-80
2023/06/06 08:17:44;;;;;;;5.18;3.08;;;;;;;-143.21;51.30;71721.22;5096958;28;20261;-81
2023/06/06 08:20:12;;;;;;;5.88;3.10;;;;;;;-143.21;51.29;71731.13;5097653;28;20750;-81
2023/06/06 08:22:55;;;;;;;10.00;3.22;;;;;;;-143.21;50.82;71729.13;5093147;28;20566;-82
2023/06/06 08:25:25;;;;;;;6.28;3.00;;;;;;;-143.21;51.52;71723.19;5091833;28;20216;-81
2023/06/06 08:27:55;;;;;;;6.57;3.78;;;;;;;-143.21;51.56;71711.28;5057470;28;20233;-81
2023/06/06 08:30:49;;;;;;;5.45;3.38;;;;;;;-143.21;51.88;71701.38;5058928;28;20237;-82
2023/06/06 08:33:16;;;;;;;5.15;3.13;;;;;;;-143.21;51.64;71687.50;5051774;28;20705;-81
2023/06/06 08:35:43;;;;;;;9.98;3.58;;;;;;;-143.21;50.91;71679.56;5051123;28;20186;-82
2023/06/06 08:38:10;;;;;;;9.13;3.35;;;;;;;-143.21;51.18;71673.63;5055631;28;20679;-82
2023/06/06 08:40:37;;;;;;;11.57;3.40;;;;;;;-143.21;51.55;71669.66;5054964;28;20208;-80
2023/06/06 08:43:06;;;;;;;7.38;2.92;;;;;;;-143.21;49.97;71659.75;5051372;28;20205;-81
2023/06/06 08:45:34;;;;;;;8.80;3.42;;;;;;;-143.21;50.01;71655.78;5057536;28;20216;-82
2023/06/06 08:48:03;;;;;;;12.35;3.40;;;;;;;-143.21;50.61;71645.88;5059126;28;20201;-81
2023/06/06 08:50:34;;;;;;;5.30;3.50;;;;;;;-143.21;49.87;71651.81;5054821;28;20271;-82
2023/06/06 08:53:04;;;;;;;9.65;3.47;;;;;;;-143.21;50.98;71647.84;5055235;28;20210;-81
2023/06/06 08:55:34;;;;;;;5.93;3.55;;;;;;;-143.21;51.21;71633.97;5058093;28;20637;-82
2023/06/06 08:58:03;;;;;;;6.35;3.47;;;;;;;-143.21;50.41;71631.97;5058358;28;20205;-83
2023/06/06 09:00:30;;;;;;;4.53;3.20;;;;;;;-143.21;50.27;71614.13;5046915;28;20197;-84
2023/06/06 09:02:59;;;;;;;9.27;3.47;;;;;;;-143.21;51.46;71610.16;5048850;28;20675;-83
2023/06/06 09:05:27;;;;;;;5.32;3.40;;;;;;;-143.21;51.10;71596.28;5050479;28;20202;-85
2023/06/06 09:07:55;;;;;;;7.22;3.42;;;;;;;-143.21;49.95;71586.38;5053714;28;20209;-83
2023/06/06 09:10:22;;;;;;;8.23;3.58;;;;;;;-143.21;50.87;71576.47;5054118;28;20208;-84
2023/06/06 09:12:49;;;;;;;6.85;3.10;;;;;;;-143.21;50.99;71558.63;5053303;28;20237;-83
2023/06/06 09:15:17;;;;;;;7.55;3.55;;;;;;;-143.21;51.44;71546.72;5049140;28;20200;-83
2023/06/06 09:17:46;;;;;;;8.55;3.38;;;;;;;-143.21;50.82;71526.91;5049020;28;20202;-83
2023/06/06 09:20:16;;;;;;;7.25;3.78;;;;;;;-143.21;50.20;71505.09;5051958;28;20209;-84
2023/06/06 09:22:48;;;;;;;8.57;3.90;;;;;;;-143.21;50.75;71503.09;5049788;28;20297;-83
2023/06/06 09:25:18;;;;;;;7.45;3.78;;;;;;;-143.21;51.31;71503.09;5052203;28;20583;-83
2023/06/06 09:28:00;;;;;;;7.25;3.58;;;;;;;-143.21;51.23;71487.25;5051160;28;20309;-84
2023/06/06 09:30:28;;;;;;;4.60;3.35;;;;;;;-143.21;50.18;71483.28;5049757;28;20226;-84
2023/06/06 09:32:58;;;;;;;4.10;3.30;;;;;;;-143.21;50.98;71461.47;5050137;28;20209;-84
2023/06/06 09:35:25;;;;;;;5.45;3.75;;;;;;;-143.21;50.21;71451.56;5056120;28;20202;-84
2023/06/06 09:37:54;;;;;;;6.07;3.08;;;;;;;-143.21;50.65;71435.69;5049787;28;20228;-84
2023/06/06 09:40:22;;;;;;;4.88;3.38;;;;;;;-143.21;50.38;71409.91;5053320;28;20225;-84
2023/06/06 09:42:50;;;;;;;5.95;3.47;;;;;;;-143.21;49.13;71396.03;5050145;28;20430;-84
2023/06/06 09:45:18;;;;;;;7.65;3.35;;;;;;;-143.21;49.77;71372.25;5049448;28;20689;-83
2023/06/06 09:47:46;;;;;;;5.05;3.28;;;;;;;-143.21;48.55;71356.38;5055511;28;20228;-84
2023/06/06 09:50:15;;;;;;;8.43;3.58;;;;;;;-143.21;49.39;71352.44;5053012;28;20198;-84
2023/06/06 09:52:42;;;;;;;5.85;3.63;;;;;;;-143.21;50.07;71332.59;5050513;28;20900;-84
2023/06/06 09:55:13;;;;;;;9.40;4.65;;;;;;;-143.21;49.36;71314.75;5049975;28;20280;-84
2023/06/06 09:57:41;;;;;;;8.10;4.38;;;;;;;-143.21;49.48;71296.91;5053128;28;20221;-82
2023/06/06 10:00:22;;;;;;;8.38;3.63;;;;;;;-143.21;49.65;71287.00;5049337;28;20210;-82
2023/06/06 10:02:50;;;;;;;7.85;3.65;;;;;;;-143.21;48.91;71271.13;5052069;28;20669;-84
2023/06/06 10:05:17;;;;;;;6.57;3.60;;;;;;;-143.21;49.56;71255.28;5051343;28;20616;-86
2023/06/06 10:07:46;;;;;;;5.45;3.70;;;;;;;-143.21;49.34;71239.41;5052737;28;20312;-84
2023/06/06 10:10:18;;;;;;;8.68;3.95;;;;;;;-143.21;49.05;71237.44;5050604;28;20593;-84
2023/06/06 10:12:45;;;;;;;8.65;3.65;;;;;;;-143.21;48.25;71233.47;5054307;28;20205;-85
2023/06/06 10:15:13;;;;;;;7.85;3.70;;;;;;;-143.21;49.31;71221.56;5049085;28;20198;-85
2023/06/06 10:17:42;;;;;;;9.52;3.50;;;;;;;-143.21;49.13;71193.81;5052147;28;20209;-85
2023/06/06 10:20:11;;;;;;;4.97;3.85;;;;;;;-143.21;48.76;71166.06;5048228;28;20202;-83
2023/06/06 10:22:39;;;;;;;9.07;3.33;;;;;;;-143.21;46.77;71134.34;5053173;28;20209;-85
2023/06/06 10:25:09;;;;;;;7.40;3.80;;;;;;;-143.21;46.11;71130.38;5051193;28;20198;-84
2023/06/06 10:27:46;;;;;;;7.25;3.45;;;;;;;-143.21;47.25;71124.44;5051840;28;20320;-84
2023/06/06 10:30:29;;;;;;;6.95;3.47;;;;;;;-143.21;46.94;71112.53;5047963;28;20221;-83
2023/06/06 10:33:07;;;;;;;6.00;3.50;;;;;;;-143.21;47.05;71096.69;5047857;28;20688;-83
2023/06/06 10:35:35;;;;;;;4.32;3.50;;;;;;;-143.21;46.83;71098.66;5052141;28;20201;-86
2023/06/06 10:38:03;;;;;;;9.50;3.60;;;;;;;-143.21;47.04;71080.81;5050385;28;20206;-84
2023/06/06 10:40:49;;;;;;;6.57;3.65;;;;;;;-143.21;46.51;71068.94;5051806;28;20209;-83
2023/06/06 10:43:37;;;;;;;7.40;3.80;;;;;;;-143.21;46.07;71053.06;5051552;28;20206;-84
2023/06/06 10:46:04;;;;;;;5.70;3.92;;;;;;;-143.21;45.63;71017.38;5049211;28;20747;-84
2023/06/06 10:48:38;;;;;;;5.82;3.85;;;;;;;-143.21;45.94;71005.50;5052560;28;20202;-86
2023/06/06 10:51:05;;;;;;;4.82;3.28;;;;;;;-143.21;44.57;70997.56;5049402;28;20289;-86
2023/06/06 10:53:32;;;;;;;9.32;3.40;;;;;;;-143.21;44.78;71011.44;5052210;28;20232;-85
2023/06/06 10:56:00;;;;;;;9.65;3.53;;;;;;;-143.21;45.87;71029.28;5048930;28;20213;-87
2023/06/06 10:58:34;;;;;;;5.65;3.70;;;;;;;-143.21;45.61;71013.41;5053084;28;20202;-82
2023/06/06 11:01:02;;;;;;;6.25;3.67;;;;;;;-143.21;45.78;70987.66;5051194;28;20300;-84
2023/06/06 11:03:37;;;;;;;5.70;4.30;;;;;;;-143.21;44.70;70963.84;5056216;28;20590;-83
2023/06/06 11:06:12;;;;;;;6.40;3.50;;;;;;;-143.21;44.72;70924.22;5055731;28;20630;-83
2023/06/06 11:08:43;;;;;;;6.95;3.65;;;;;;;-143.21;43.96;70908.34;5052410;28;20656;-82
2023/06/06 11:11:27;;;;;;;5.70;3.40;;;;;;;-143.21;44.01;70884.56;5052651;28;20206;-84
2023/06/06 11:14:14;;;;;;;3.97;3.20;;;;;;;-143.21;42.85;70852.84;5052840;28;20680;-84
2023/06/06 11:17:11;;;;;;;5.60;3.22;;;;;;;-143.21;42.23;70813.19;5052225;28;20194;-82
2023/06/06 11:19:40;;;;;;;9.38;3.35;;;;;;;-143.21;42.89;70829.06;5051162;28;20277;-80
2023/06/06 11:22:22;;;;;;;7.43;3.10;;;;;;;-143.21;42.53;70795.38;5058250;28;20202;-82
2023/06/06 11:25:10;;;;;;;4.78;3.40;;;;;;;-143.21;41.88;70771.56;5055940;28;20209;-80
2023/06/06 11:28:01;;;;;;;5.38;3.35;;;;;;;-143.21;41.88;70729.94;5057132;28;20224;-80